Time;durP1;ratioP1;P1;durP2;ratioP2;P2;SDS_P1;SDS_P2;PMS_P1;PMS_P2;Temp;Humidity;BMP_temperature;BMP_pressure;BME280_temperature;BME280_humidity;BME280_pressure;Samples;Min_cycle;Max_cycle;Signal;HPM_P1;HPM_P2
2021/01/24 00:00:26;;;;;;;23.23;17.42;;;7.20;64.10;;;;;;5055706;28;20023;-76
2021/01/24 00:02:52;;;;;;;22.08;16.67;;;7.20;64.10;;;;;;5055702;28;20676;-76
2021/01/24 00:05:19;;;;;;;24.40;16.58;;;7.20;63.90;;;;;;5055603;28;20087;-76
2021/01/24 00:07:45;;;;;;;24.35;16.58;;;7.20;63.80;;;;;;5047519;28;20025;-76
2021/01/24 00:10:12;;;;;;;26.77;18.52;;;7.10;63.70;;;;;;5055557;28;20355;-76
2021/01/24 00:12:39;;;;;;;25.02;16.42;;;7.10;63.90;;;;;;5055252;28;20017;-75
2021/01/24 00:15:06;;;;;;;23.70;17.38;;;7.10;64.00;;;;;;5050648;28;20029;-76
2021/01/24 00:17:32;;;;;;;23.00;16.95;;;7.00;63.90;;;;;;5053484;28;20056;-76
2021/01/24 00:19:59;;;;;;;25.98;17.35;;;7.00;64.00;;;;;;5055013;28;20423;-76
2021/01/24 00:22:26;;;;;;;21.77;15.82;;;7.00;64.10;;;;;;5055058;28;20382;-76
2021/01/24 00:24:52;;;;;;;24.50;17.52;;;7.00;64.20;;;;;;5054989;28;20025;-76
2021/01/24 00:27:17;;;;;;;24.45;16.92;;;7.00;64.30;;;;;;5054893;28;20036;-76
2021/01/24 00:29:43;;;;;;;23.40;16.63;;;7.00;64.40;;;;;;5054771;28;20402;-76
2021/01/24 00:32:09;;;;;;;23.95;17.15;;;7.00;64.40;;;;;;5055145;28;20021;-76
2021/01/24 00:34:34;;;;;;;27.55;18.88;;;7.00;64.30;;;;;;5054759;28;20032;-76
2021/01/24 00:37:00;;;;;;;31.50;19.70;;;7.00;64.50;;;;;;5054795;28;20119;-76
2021/01/24 00:39:26;;;;;;;32.63;19.60;;;7.00;64.60;;;;;;5051208;28;20112;-76
2021/01/24 00:41:52;;;;;;;25.83;17.35;;;7.00;64.60;;;;;;5054664;28;20040;-76
2021/01/24 00:44:17;;;;;;;28.95;19.95;;;7.00;64.70;;;;;;5054920;28;20078;-76
2021/01/24 00:46:44;;;;;;;29.42;19.95;;;7.00;64.90;;;;;;5049990;28;20517;-76
2021/01/24 00:49:10;;;;;;;36.53;23.05;;;7.10;65.20;;;;;;5049650;28;20060;-76
2021/01/24 00:51:36;;;;;;;33.60;21.63;;;7.10;65.30;;;;;;5054335;28;20045;-76
2021/01/24 00:54:01;;;;;;;30.58;19.67;;;7.10;65.20;;;;;;5054459;28;20487;-76
2021/01/24 00:56:27;;;;;;;38.70;24.63;;;7.10;65.10;;;;;;5054680;28;20094;-76
2021/01/24 00:58:53;;;;;;;33.22;21.30;;;7.10;65.10;;;;;;5049856;28;20035;-76
2021/01/24 01:01:19;;;;;;;35.33;22.10;;;7.10;65.00;;;;;;5050901;28;20059;-76
2021/01/24 01:03:44;;;;;;;28.63;18.58;;;7.10;64.90;;;;;;5054588;28;20033;-76
2021/01/24 01:06:10;;;;;;;22.15;14.70;;;7.10;64.70;;;;;;5054366;28;20466;-76
2021/01/24 01:08:36;;;;;;;20.73;13.88;;;7.10;64.60;;;;;;5054206;28;20017;-76
2021/01/24 01:11:02;;;;;;;20.55;13.68;;;7.10;64.60;;;;;;5036329;28;20060;-76
2021/01/24 01:13:27;;;;;;;17.60;12.15;;;7.00;64.50;;;;;;5054110;28;20017;-76
2021/01/24 01:15:53;;;;;;;19.50;12.77;;;7.00;64.70;;;;;;5054060;28;20025;-76
2021/01/24 01:18:19;;;;;;;19.58;13.38;;;7.00;64.80;;;;;;5054011;28;20033;-76
2021/01/24 01:20:44;;;;;;;20.02;13.68;;;7.00;65.00;;;;;;5054090;28;20049;-76
2021/01/24 01:23:10;;;;;;;18.33;12.60;;;7.00;65.20;;;;;;5052626;28;20497;-76
2021/01/24 01:25:36;;;;;;;20.80;13.45;;;7.00;65.20;;;;;;5053873;28;20029;-76
2021/01/24 01:28:01;;;;;;;22.35;15.43;;;6.90;65.10;;;;;;5054160;28;20025;-75
2021/01/24 01:30:27;;;;;;;21.33;13.70;;;6.90;65.00;;;;;;5053470;28;20545;-76
2021/01/24 01:32:53;;;;;;;21.27;14.40;;;6.90;64.80;;;;;;5053841;28;20120;-76
2021/01/24 01:35:19;;;;;;;21.35;14.30;;;6.80;64.70;;;;;;5053741;28;20094;-76
2021/01/24 01:37:45;;;;;;;23.33;14.68;;;6.80;64.70;;;;;;5053982;28;20021;-76
2021/01/24 01:40:11;;;;;;;21.33;13.95;;;6.80;64.70;;;;;;5053692;28;20029;-75
2021/01/24 01:42:37;;;;;;;22.77;14.20;;;6.70;64.60;;;;;;5052350;28;20029;-76
2021/01/24 01:45:04;;;;;;;22.05;15.40;;;6.70;64.70;;;;;;5053599;28;20021;-76
2021/01/24 01:47:30;;;;;;;21.08;14.18;;;6.60;64.60;;;;;;5053509;28;20021;-76
2021/01/24 01:49:57;;;;;;;24.42;15.50;;;6.60;64.60;;;;;;5052221;28;20021;-76
2021/01/24 01:52:27;;;;;;;21.88;14.82;;;6.50;64.50;;;;;;5035474;28;20112;-76
2021/01/24 01:54:54;;;;;;;19.65;13.43;;;6.50;64.60;;;;;;5053439;28;20029;-76
2021/01/24 01:57:21;;;;;;;23.17;15.23;;;6.40;64.90;;;;;;5049077;28;20108;-75
2021/01/24 01:59:47;;;;;;;28.08;17.35;;;6.30;64.70;;;;;;5053378;28;20066;-76
2021/01/24 02:02:48;;;;;;;26.58;17.48;;;6.20;65.20;;;;;;5053329;28;20037;-76
2021/01/24 02:05:47;;;;;;;23.30;15.20;;;6.20;65.20;;;;;;5032061;28;20037;-76
2021/01/24 02:08:51;;;;;;;21.15;13.98;;;6.10;64.30;;;;;;5048833;28;20025;-76
2021/01/24 02:11:42;;;;;;;19.90;13.05;;;6.00;64.30;;;;;;4991977;28;20062;-76
2021/01/24 02:14:30;;;;;;;23.25;14.82;;;6.00;64.40;;;;;;4975736;28;20039;-75
2021/01/24 02:16:58;;;;;;;23.60;14.27;;;5.90;64.50;;;;;;4975687;28;20546;-76
2021/01/24 02:19:42;;;;;;;21.88;13.85;;;5.80;64.50;;;;;;4991896;28;20491;-76
2021/01/24 02:22:10;;;;;;;19.75;13.43;;;5.80;64.70;;;;;;4992450;28;20086;-75
2021/01/24 02:24:41;;;;;;;15.18;10.18;;;5.70;64.80;;;;;;4991956;28;20031;-76
2021/01/24 02:27:14;;;;;;;17.55;11.82;;;5.60;64.80;;;;;;4992155;28;20045;-76
2021/01/24 02:30:04;;;;;;;18.80;11.90;;;5.50;64.90;;;;;;4991734;28;20444;-76
2021/01/24 02:32:32;;;;;;;15.48;9.60;;;5.50;65.20;;;;;;4991870;28;20129;-76
2021/01/24 02:34:59;;;;;;;12.52;8.80;;;5.50;65.20;;;;;;4992038;28;20523;-75
2021/01/24 02:37:26;;;;;;;16.40;10.43;;;5.40;65.20;;;;;;4991798;28;20030;-75
2021/01/24 02:39:53;;;;;;;14.35;9.27;;;5.40;65.20;;;;;;4975561;28;20261;-75
2021/01/24 02:42:20;;;;;;;14.65;9.70;;;5.40;65.20;;;;;;4975437;28;20110;-76
2021/01/24 02:44:47;;;;;;;16.08;9.95;;;5.30;65.30;;;;;;4975471;28;20045;-76
2021/01/24 02:47:13;;;;;;;10.77;6.90;;;5.30;65.40;;;;;;5025851;28;20435;-76
2021/01/24 02:49:41;;;;;;;17.65;10.88;;;5.30;65.50;;;;;;5051163;28;20025;-76
2021/01/24 02:52:08;;;;;;;17.77;11.93;;;5.30;66.00;;;;;;5052950;28;20025;-76
2021/01/24 02:54:36;;;;;;;25.20;11.15;;;5.30;66.40;;;;;;5052914;28;20426;-76
2021/01/24 02:57:02;;;;;;;14.02;9.05;;;5.30;66.70;;;;;;5052850;28;20017;-76
2021/01/24 02:59:28;;;;;;;14.82;10.60;;;5.30;66.80;;;;;;5052835;28;20028;-76
2021/01/24 03:01:54;;;;;;;19.40;12.77;;;5.40;67.00;;;;;;5053140;28;20025;-76
2021/01/24 03:04:20;;;;;;;17.70;12.43;;;5.50;67.20;;;;;;5052791;28;20021;-76
2021/01/24 03:06:46;;;;;;;19.15;11.93;;;5.50;67.20;;;;;;5052963;28;20028;-76
2021/01/24 03:09:12;;;;;;;18.40;12.68;;;5.50;67.10;;;;;;5053100;28;20071;-76
2021/01/24 03:11:43;;;;;;;18.48;12.85;;;5.50;66.80;;;;;;5052715;28;20078;-75
2021/01/24 03:14:19;;;;;;;16.33;11.52;;;5.50;66.70;;;;;;5055607;28;20013;-76
2021/01/24 03:16:49;;;;;;;17.83;11.75;;;5.50;66.50;;;;;;5056407;28;20032;-76
2021/01/24 03:19:19;;;;;;;17.90;11.27;;;5.50;66.50;;;;;;5055046;28;20032;-76
2021/01/24 03:21:47;;;;;;;14.98;10.93;;;5.50;66.50;;;;;;5056588;28;20043;-76
2021/01/24 03:24:16;;;;;;;15.90;11.25;;;5.50;66.40;;;;;;5038275;28;20036;-76
2021/01/24 03:26:43;;;;;;;16.60;11.00;;;5.50;66.40;;;;;;5056085;28;20103;-76
2021/01/24 03:29:09;;;;;;;16.50;11.75;;;5.60;66.50;;;;;;5056131;28;20091;-75
2021/01/24 03:31:34;;;;;;;16.20;11.43;;;5.60;66.60;;;;;;5055896;28;20052;-76
2021/01/24 03:34:07;;;;;;;19.33;12.32;;;5.60;66.50;;;;;;5056080;28;20079;-75
2021/01/24 03:36:32;;;;;;;18.05;11.57;;;5.60;66.10;;;;;;5054775;28;20108;-75
2021/01/24 03:38:58;;;;;;;20.58;12.98;;;5.60;65.80;;;;;;5055975;28;20107;-75
2021/01/24 03:41:24;;;;;;;18.88;13.18;;;5.60;65.70;;;;;;5055902;28;20029;-76
2021/01/24 03:43:51;;;;;;;18.38;13.32;;;5.60;65.50;;;;;;5055867;28;20052;-75
2021/01/24 03:46:17;;;;;;;18.15;12.23;;;5.50;65.30;;;;;;5055722;28;20100;-75
2021/01/24 03:48:42;;;;;;;21.83;12.68;;;5.50;65.30;;;;;;5056051;28;20437;-76
2021/01/24 03:51:08;;;;;;;21.70;13.68;;;5.40;65.40;;;;;;5054388;28;20470;-76
2021/01/24 03:53:34;;;;;;;21.75;13.63;;;5.50;65.60;;;;;;5055986;28;20094;-76
2021/01/24 03:55:59;;;;;;;23.17;13.85;;;5.40;65.60;;;;;;5055640;28;20040;-75
2021/01/24 03:58:25;;;;;;;23.83;15.27;;;5.40;65.70;;;;;;5055544;28;20118;-76
2021/01/24 04:00:51;;;;;;;25.60;15.43;;;5.50;66.00;;;;;;5055593;28;20029;-75
2021/01/24 04:03:16;;;;;;;28.25;16.98;;;5.40;66.00;;;;;;5055471;28;20025;-76
2021/01/24 04:05:42;;;;;;;35.50;20.55;;;5.50;66.20;;;;;;5055341;28;20078;-76
2021/01/24 04:08:08;;;;;;;35.33;19.65;;;5.50;66.40;;;;;;5055428;28;20021;-75
2021/01/24 04:10:34;;;;;;;35.40;21.02;;;5.50;66.50;;;;;;5055337;28;20540;-75
2021/01/24 04:13:02;;;;;;;36.85;20.80;;;5.50;66.60;;;;;;5055305;28;20048;-75
2021/01/24 04:15:28;;;;;;;33.92;20.30;;;5.50;66.70;;;;;;5037351;28;20096;-76
2021/01/24 04:17:54;;;;;;;42.40;24.60;;;5.60;66.80;;;;;;5055487;28;20104;-76
2021/01/24 04:20:19;;;;;;;40.85;22.92;;;5.60;66.80;;;;;;5055219;28;20028;-75
2021/01/24 04:22:45;;;;;;;41.95;23.10;;;5.60;66.70;;;;;;5055385;28;20100;-75
2021/01/24 04:25:13;;;;;;;37.55;21.00;;;5.60;66.60;;;;;;5053977;28;20118;-76
2021/01/24 04:27:39;;;;;;;36.58;20.42;;;5.60;66.60;;;;;;5055094;28;20108;-76
2021/01/24 04:30:06;;;;;;;34.72;19.13;;;5.70;66.40;;;;;;5054788;28;20124;-75
2021/01/24 04:32:31;;;;;;;28.85;17.25;;;5.70;66.20;;;;;;5054849;28;20080;-75
2021/01/24 04:34:57;;;;;;;28.05;15.77;;;5.70;65.90;;;;;;5055393;28;20089;-76
2021/01/24 04:37:23;;;;;;;27.63;15.77;;;5.70;66.50;;;;;;5050881;28;20116;-76
2021/01/24 04:39:49;;;;;;;23.60;13.88;;;5.70;65.80;;;;;;5054941;28;20076;-76
2021/01/24 04:42:15;;;;;;;24.83;13.95;;;5.70;65.90;;;;;;5054747;28;20104;-76
2021/01/24 04:44:42;;;;;;;23.20;13.35;;;5.80;66.10;;;;;;5054933;28;20027;-75
2021/01/24 04:47:09;;;;;;;22.48;13.93;;;5.80;66.00;;;;;;5054558;28;20029;-76
2021/01/24 04:49:35;;;;;;;21.58;12.68;;;5.80;66.10;;;;;;5054462;28;20025;-75
2021/01/24 04:52:02;;;;;;;22.83;13.95;;;5.90;66.40;;;;;;5054583;28;20029;-75
2021/01/24 04:54:29;;;;;;;22.45;12.90;;;5.90;66.40;;;;;;5054789;28;20091;-75
2021/01/24 04:56:55;;;;;;;21.08;12.80;;;6.00;66.40;;;;;;5054480;28;20029;-76
2021/01/24 04:59:21;;;;;;;24.42;14.50;;;6.00;66.30;;;;;;5054676;28;20382;-76
2021/01/24 05:01:48;;;;;;;27.60;15.32;;;6.00;66.00;;;;;;5054564;28;20039;-76
2021/01/24 05:04:13;;;;;;;23.83;13.15;;;6.10;66.00;;;;;;5053012;28;20073;-75
2021/01/24 05:06:39;;;;;;;21.95;13.10;;;6.10;65.80;;;;;;5054203;28;20037;-75
2021/01/24 05:09:05;;;;;;;25.30;15.35;;;6.10;65.70;;;;;;5054247;28;20374;-75
2021/01/24 05:11:31;;;;;;;25.70;14.75;;;6.10;65.60;;;;;;5054221;28;20036;-76
2021/01/24 05:14:17;;;;;;;20.33;12.88;;;6.10;65.50;;;;;;5054154;28;20032;-76
2021/01/24 05:16:43;;;;;;;24.70;14.32;;;6.10;65.40;;;;;;5054380;28;20028;-75
2021/01/24 05:19:10;;;;;;;22.30;13.63;;;6.10;65.40;;;;;;5053973;28;20025;-76
2021/01/24 05:21:38;;;;;;;21.73;13.70;;;6.10;65.30;;;;;;5053992;28;20025;-75
2021/01/24 05:24:10;;;;;;;23.80;13.93;;;6.10;65.40;;;;;;5049404;28;20021;-76
2021/01/24 05:26:38;;;;;;;20.20;12.43;;;6.10;65.50;;;;;;5052923;28;20385;-75
2021/01/24 05:29:04;;;;;;;27.73;16.77;;;6.20;65.70;;;;;;5054124;28;20014;-75
2021/01/24 05:31:31;;;;;;;33.97;17.83;;;6.10;65.70;;;;;;5053702;28;20044;-76
2021/01/24 05:33:57;;;;;;;34.17;19.17;;;6.10;65.60;;;;;;5049277;28;20017;-76
2021/01/24 05:36:24;;;;;;;27.20;15.82;;;6.20;65.60;;;;;;5050572;28;20029;-76
2021/01/24 05:38:52;;;;;;;36.10;20.05;;;6.20;65.70;;;;;;5053702;28;20408;-76
2021/01/24 05:41:18;;;;;;;30.95;16.88;;;6.20;65.70;;;;;;5053658;28;20103;-76
2021/01/24 05:43:45;;;;;;;26.40;14.93;;;6.20;65.60;;;;;;5044225;28;20052;-76
2021/01/24 05:46:12;;;;;;;28.58;16.15;;;6.20;65.80;;;;;;5053784;28;20091;-76
2021/01/24 05:48:48;;;;;;;27.33;15.85;;;6.20;66.60;;;;;;5052212;28;20029;-76
2021/01/24 05:51:15;;;;;;;26.20;15.43;;;6.20;65.50;;;;;;5053889;28;20066;-75
2021/01/24 05:53:45;;;;;;;26.20;15.50;;;6.20;65.30;;;;;;5053491;28;20013;-76
2021/01/24 05:56:16;;;;;;;28.92;15.45;;;6.30;65.30;;;;;;5048891;28;20079;-76
2021/01/24 05:58:42;;;;;;;28.33;16.23;;;6.30;65.40;;;;;;5053538;28;20101;-76
2021/01/24 06:01:09;;;;;;;30.90;15.95;;;6.30;65.40;;;;;;5053501;28;20033;-76
2021/01/24 06:03:36;;;;;;;30.35;15.98;;;6.30;65.50;;;;;;5052059;28;20025;-75
2021/01/24 06:06:02;;;;;;;27.73;15.43;;;6.30;65.60;;;;;;5053340;28;20021;-76
2021/01/24 06:08:29;;;;;;;33.03;17.30;;;6.40;65.60;;;;;;5053232;28;20025;-75
2021/01/24 06:10:58;;;;;;;26.35;13.82;;;6.40;65.50;;;;;;5048794;28;20109;-76
2021/01/24 06:13:25;;;;;;;34.03;17.73;;;6.40;65.60;;;;;;5050601;28;20021;-75
2021/01/24 06:15:53;;;;;;;37.83;17.77;;;6.40;65.80;;;;;;5053515;28;20406;-75
2021/01/24 06:18:51;;;;;;;37.35;19.42;;;6.40;65.90;;;;;;5053377;28;20029;-76
2021/01/24 06:21:24;;;;;;;36.58;17.92;;;6.40;65.80;;;;;;5035315;28;20430;-76
2021/01/24 06:24:23;;;;;;;37.53;19.17;;;6.40;65.70;;;;;;5053404;28;20091;-76
2021/01/24 06:26:54;;;;;;;35.33;18.48;;;6.40;65.60;;;;;;5052553;28;20040;-76
2021/01/24 06:29:21;;;;;;;35.63;18.88;;;6.40;65.50;;;;;;5053323;28;20101;-76
2021/01/24 06:31:52;;;;;;;37.60;18.95;;;6.40;65.50;;;;;;5053418;28;20478;-75
2021/01/24 06:34:33;;;;;;;33.47;18.70;;;6.40;65.50;;;;;;5053377;28;20022;-75
2021/01/24 06:37:11;;;;;;;32.55;17.02;;;6.40;65.30;;;;;;5052997;28;20029;-75
2021/01/24 06:39:47;;;;;;;32.10;17.48;;;6.40;65.50;;;;;;5053018;28;20397;-75
2021/01/24 06:42:33;;;;;;;32.53;16.70;;;6.40;65.40;;;;;;5035158;28;20040;-76
2021/01/24 06:44:59;;;;;;;30.17;15.50;;;6.40;65.50;;;;;;5053170;28;20028;-75
2021/01/24 06:47:40;;;;;;;33.45;18.35;;;6.40;65.60;;;;;;5053235;28;20032;-76
2021/01/24 06:50:36;;;;;;;32.17;17.00;;;6.40;65.50;;;;;;5056891;28;20075;-76
2021/01/24 06:53:06;;;;;;;28.00;16.25;;;6.40;65.50;;;;;;5050436;28;20025;-75
2021/01/24 06:55:32;;;;;;;29.85;16.38;;;6.40;65.50;;;;;;5057325;28;20523;-75
2021/01/24 06:58:19;;;;;;;34.25;17.85;;;6.40;65.60;;;;;;5057024;28;20029;-75
2021/01/24 07:00:44;;;;;;;34.00;18.02;;;6.40;65.70;;;;;;5045924;28;20086;-76
2021/01/24 07:03:20;;;;;;;36.92;19.63;;;6.40;65.60;;;;;;5057114;28;20029;-75
2021/01/24 07:05:46;;;;;;;26.55;15.20;;;6.40;65.50;;;;;;5057078;28;20032;-75
2021/01/24 07:08:31;;;;;;;24.25;14.63;;;6.30;65.40;;;;;;5038587;28;20480;-75
2021/01/24 07:10:57;;;;;;;;;;;6.40;65.70;;;;;;5052298;28;20036;-76
2021/01/24 07:13:25;;;;;;;23.67;13.70;;;6.40;65.70;;;;;;5053508;28;20353;-75
2021/01/24 07:16:05;;;;;;;33.03;18.33;;;6.50;65.90;;;;;;5056364;28;20108;-76
2021/01/24 07:18:44;;;;;;;31.40;17.77;;;6.50;66.00;;;;;;5056666;28;20430;-75
2021/01/24 07:21:11;;;;;;;27.08;15.32;;;6.50;66.20;;;;;;5056190;28;20024;-75
2021/01/24 07:23:39;;;;;;;24.63;14.38;;;6.50;66.30;;;;;;5056405;28;20489;-76
2021/01/24 07:26:05;;;;;;;28.65;16.00;;;6.50;66.30;;;;;;5038225;28;20029;-76
2021/01/24 07:28:33;;;;;;;25.65;15.35;;;6.60;66.30;;;;;;5056377;28;20013;-76
2021/01/24 07:31:02;;;;;;;28.38;15.70;;;6.60;66.10;;;;;;5055878;28;20080;-76
2021/01/24 07:33:30;;;;;;;27.15;15.93;;;6.70;66.30;;;;;;5056059;28;20021;-77
2021/01/24 07:36:00;;;;;;;26.30;15.63;;;6.70;66.20;;;;;;5054760;28;20112;-76
2021/01/24 07:38:26;;;;;;;28.90;15.75;;;6.80;66.10;;;;;;5038305;28;20356;-76
2021/01/24 07:40:57;;;;;;;25.85;15.10;;;6.80;65.70;;;;;;5056230;28;20083;-77
2021/01/24 07:43:26;;;;;;;26.70;15.75;;;6.80;65.50;;;;;;5055905;28;20592;-77
2021/01/24 07:45:52;;;;;;;29.05;16.35;;;6.80;65.40;;;;;;5055689;28;20471;-77
2021/01/24 07:48:18;;;;;;;27.65;15.80;;;6.80;65.60;;;;;;5054542;28;20487;-77
2021/01/24 07:50:43;;;;;;;27.88;17.08;;;6.80;65.50;;;;;;5055774;28;20025;-77
2021/01/24 07:53:10;;;;;;;25.17;15.02;;;6.80;65.20;;;;;;5056306;28;20053;-77
2021/01/24 07:55:37;;;;;;;24.35;15.45;;;6.90;65.20;;;;;;5055593;28;20095;-77
2021/01/24 07:58:04;;;;;;;23.85;14.60;;;6.90;65.30;;;;;;5055512;28;20029;-76
2021/01/24 08:00:31;;;;;;;24.27;15.25;;;6.90;65.70;;;;;;5037472;28;20036;-76
2021/01/24 08:02:58;;;;;;;27.58;15.85;;;7.00;65.70;;;;;;5055516;28;20025;-76
2021/01/24 08:05:28;;;;;;;26.45;14.63;;;7.00;65.60;;;;;;5055729;28;20099;-75
2021/01/24 08:07:55;;;;;;;23.60;14.63;;;7.10;65.50;;;;;;5055632;28;20079;-76
2021/01/24 08:10:21;;;;;;;23.10;14.75;;;7.10;65.60;;;;;;5055349;28;20376;-76
2021/01/24 08:12:47;;;;;;;30.38;18.42;;;7.10;65.60;;;;;;5055316;28;20021;-77
2021/01/24 08:15:13;;;;;;;25.90;15.45;;;7.20;64.80;;;;;;5055572;28;20024;-75
2021/01/24 08:17:41;;;;;;;28.25;16.52;;;7.10;64.50;;;;;;5053971;28;20120;-76
2021/01/24 08:20:08;;;;;;;26.20;15.27;;;7.10;64.50;;;;;;5055101;28;20018;-75
2021/01/24 08:22:35;;;;;;;26.17;14.63;;;7.10;64.60;;;;;;5055393;28;20023;-73
2021/01/24 08:25:02;;;;;;;23.10;12.43;;;7.00;64.30;;;;;;5055461;28;20422;-73
2021/01/24 08:27:28;;;;;;;17.08;10.00;;;7.00;63.70;;;;;;5054973;28;20029;-76
2021/01/24 08:29:54;;;;;;;23.30;12.38;;;6.90;63.50;;;;;;5054757;28;20557;-74
2021/01/24 08:32:20;;;;;;;22.77;13.23;;;6.90;63.30;;;;;;5054868;28;20025;-77
2021/01/24 08:34:46;;;;;;;22.85;13.25;;;6.90;63.70;;;;;;5050405;28;20017;-76
2021/01/24 08:37:12;;;;;;;19.80;12.13;;;6.90;64.10;;;;;;5050897;28;20037;-77
2021/01/24 08:39:38;;;;;;;17.10;10.90;;;7.00;64.60;;;;;;5055321;28;20078;-75
2021/01/24 08:42:05;;;;;;;15.88;10.20;;;7.00;64.30;;;;;;5054688;28;20359;-74
2021/01/24 08:44:31;;;;;;;18.70;11.23;;;7.10;64.60;;;;;;5054609;28;20029;-76
2021/01/24 08:47:05;;;;;;;17.17;10.63;;;7.20;64.70;;;;;;5054533;28;20111;-74
2021/01/24 08:49:31;;;;;;;16.70;10.20;;;7.30;64.60;;;;;;5054629;28;20045;-74
2021/01/24 08:52:00;;;;;;;13.18;8.57;;;7.30;64.00;;;;;;5054471;28;20020;-78
2021/01/24 08:54:33;;;;;;;15.38;9.75;;;7.40;63.50;;;;;;5054526;28;20025;-74
2021/01/24 08:57:13;;;;;;;18.33;10.57;;;7.40;63.20;;;;;;5054925;28;20134;-78
2021/01/24 08:59:40;;;;;;;15.88;10.07;;;7.40;62.00;;;;;;5054612;28;20032;-76
2021/01/24 09:02:06;;;;;;;15.43;9.68;;;7.40;61.40;;;;;;5049756;28;20021;-75
2021/01/24 09:04:33;;;;;;;15.70;10.07;;;7.40;61.40;;;;;;5043772;28;20025;-78
2021/01/24 09:07:17;;;;;;;14.98;10.32;;;7.40;61.40;;;;;;5045968;28;20061;-78
2021/01/24 09:09:45;;;;;;;14.70;9.13;;;7.30;61.20;;;;;;5063329;28;20024;-78
2021/01/24 09:12:15;;;;;;;13.25;8.02;;;7.40;61.60;;;;;;5045013;28;20397;-75
2021/01/24 09:14:41;;;;;;;13.98;8.95;;;7.40;61.60;;;;;;5036272;28;20026;-76
2021/01/24 09:17:12;;;;;;;12.02;8.10;;;7.40;61.80;;;;;;5031618;28;20033;-76
2021/01/24 09:19:40;;;;;;;13.02;7.50;;;7.40;61.60;;;;;;5073347;28;20052;-75
2021/01/24 09:22:07;;;;;;;13.27;8.20;;;7.40;61.50;;;;;;5067494;28;20481;-75
2021/01/24 09:24:33;;;;;;;12.45;7.53;;;7.40;61.40;;;;;;5054041;28;20079;-76
2021/01/24 09:26:59;;;;;;;9.23;5.80;;;7.40;61.40;;;;;;5035758;28;20434;-77
2021/01/24 09:29:25;;;;;;;9.02;5.55;;;7.30;61.20;;;;;;5053804;28;20097;-76
2021/01/24 09:31:50;;;;;;;7.28;4.78;;;7.30;60.50;;;;;;5053931;28;20082;-75
2021/01/24 09:34:16;;;;;;;7.88;4.75;;;7.20;60.10;;;;;;5047344;28;20024;-76
2021/01/24 09:36:42;;;;;;;6.28;4.05;;;7.20;59.90;;;;;;5048964;28;20494;-77
2021/01/24 09:39:08;;;;;;;7.72;4.65;;;7.10;59.70;;;;;;5069139;28;20056;-76
2021/01/24 09:41:35;;;;;;;5.93;3.97;;;7.10;59.70;;;;;;5057508;28;20018;-78
2021/01/24 09:44:04;;;;;;;7.03;3.88;;;7.10;59.60;;;;;;5030762;28;20026;-74
2021/01/24 09:46:30;;;;;;;5.45;3.38;;;7.00;59.70;;;;;;5036424;28;20052;-79
2021/01/24 09:48:56;;;;;;;5.43;3.50;;;7.00;59.50;;;;;;5073762;28;20470;-77
2021/01/24 09:51:22;;;;;;;5.85;3.58;;;7.10;59.50;;;;;;5041789;28;20457;-78
2021/01/24 09:53:52;;;;;;;6.80;3.50;;;7.10;59.70;;;;;;5044057;28;20049;-78
2021/01/24 09:56:19;;;;;;;6.53;3.78;;;7.20;60.10;;;;;;5048895;28;20036;-75
2021/01/24 09:58:45;;;;;;;6.53;4.13;;;7.20;60.20;;;;;;5053642;28;20021;-78
2021/01/24 10:01:11;;;;;;;8.13;4.90;;;7.20;60.00;;;;;;5053489;28;20056;-78
2021/01/24 10:03:37;;;;;;;6.20;4.05;;;7.30;60.10;;;;;;5048628;28;20017;-76
2021/01/24 10:06:04;;;;;;;8.30;3.47;;;7.30;59.80;;;;;;5052160;28;20037;-78
2021/01/24 10:08:30;;;;;;;6.55;4.07;;;7.30;59.60;;;;;;5035578;28;20025;-74
2021/01/24 10:10:56;;;;;;;8.57;4.00;;;7.40;59.60;;;;;;5051643;28;20049;-76
2021/01/24 10:13:22;;;;;;;5.60;3.28;;;7.40;59.50;;;;;;5053577;28;20406;-79
2021/01/24 10:15:52;;;;;;;10.38;3.60;;;7.40;59.60;;;;;;5051612;28;20426;-76
2021/01/24 10:18:19;;;;;;;4.78;2.90;;;7.40;59.10;;;;;;5050942;28;20100;-77
2021/01/24 10:20:45;;;;;;;4.18;2.50;;;7.50;59.20;;;;;;5049516;28;20017;-76
2021/01/24 10:23:11;;;;;;;3.40;1.88;;;7.50;58.60;;;;;;5051344;28;20112;-76
2021/01/24 10:25:37;;;;;;;3.72;2.10;;;7.60;57.80;;;;;;5052532;28;20414;-77
2021/01/24 10:28:03;;;;;;;3.10;1.95;;;7.60;56.50;;;;;;5055377;28;20043;-77
2021/01/24 10:30:29;;;;;;;3.17;1.50;;;7.60;55.90;;;;;;5032035;28;20048;-78
2021/01/24 10:32:55;;;;;;;2.65;1.40;;;7.60;55.50;;;;;;5070605;28;20021;-74
2021/01/24 10:35:21;;;;;;;2.60;1.20;;;7.70;55.30;;;;;;5074312;28;20464;-78
2021/01/24 10:37:46;;;;;;;1.17;0.88;;;7.70;55.60;;;;;;5056486;28;20025;-77
2021/01/24 10:40:12;;;;;;;1.25;0.70;;;7.80;54.20;;;;;;5053647;28;20041;-77
2021/01/24 10:42:39;;;;;;;3.30;0.70;;;7.80;53.90;;;;;;5046290;28;20036;-77
2021/01/24 10:45:06;;;;;;;6.53;0.82;;;7.80;53.40;;;;;;5051913;28;20031;-76
2021/01/24 10:47:32;;;;;;;2.10;0.90;;;7.80;52.50;;;;;;5055011;28;20528;-79
2021/01/24 10:49:58;;;;;;;2.42;1.13;;;7.90;52.00;;;;;;5048994;28;20025;-77
2021/01/24 10:52:24;;;;;;;1.80;1.10;;;7.90;51.80;;;;;;5055856;28;20036;-74
2021/01/24 10:54:50;;;;;;;2.53;1.02;;;8.00;52.40;;;;;;5055841;28;20398;-76
2021/01/24 10:57:15;;;;;;;3.08;1.10;;;8.00;52.70;;;;;;5050156;28;20087;-75
2021/01/24 10:59:41;;;;;;;1.48;0.90;;;8.10;51.60;;;;;;5054895;28;20074;-75
2021/01/24 11:02:07;;;;;;;3.53;0.77;;;8.20;51.70;;;;;;5060425;28;20017;-77
2021/01/24 11:04:33;;;;;;;4.85;1.20;;;8.20;51.20;;;;;;5050386;28;20059;-74
2021/01/24 11:07:03;;;;;;;1.67;0.90;;;8.30;49.80;;;;;;5047269;28;20029;-76
2021/01/24 11:09:29;;;;;;;3.53;1.00;;;8.30;51.50;;;;;;5055849;28;20025;-78
2021/01/24 11:11:55;;;;;;;2.38;1.10;;;8.40;51.00;;;;;;5053666;28;20033;-75
2021/01/24 11:14:21;;;;;;;1.13;0.70;;;8.40;50.50;;;;;;5056083;28;20498;-74
2021/01/24 11:16:47;;;;;;;1.42;0.80;;;8.50;50.50;;;;;;5056385;28;20524;-75
2021/01/24 11:19:13;;;;;;;3.70;0.90;;;8.50;50.10;;;;;;5052479;28;20022;-77
2021/01/24 11:21:38;;;;;;;3.80;1.45;;;8.50;49.30;;;;;;5054158;28;20037;-75
2021/01/24 11:24:05;;;;;;;1.42;0.85;;;8.50;49.70;;;;;;5048793;28;20029;-75
2021/01/24 11:26:30;;;;;;;3.40;1.10;;;8.50;49.50;;;;;;5056640;28;20032;-76
2021/01/24 11:28:56;;;;;;;3.53;1.33;;;8.50;49.50;;;;;;5056171;28;20374;-75
2021/01/24 11:31:22;;;;;;;0.70;0.70;;;8.50;49.10;;;;;;5055834;28;20479;-76
2021/01/24 11:33:48;;;;;;;3.70;1.08;;;8.50;48.70;;;;;;5055372;28;20021;-74
2021/01/24 11:36:15;;;;;;;1.20;0.80;;;8.40;48.70;;;;;;5055965;28;20532;-77
2021/01/24 11:38:41;;;;;;;1.33;0.73;;;8.40;48.90;;;;;;5053982;28;20029;-76
2021/01/24 11:41:07;;;;;;;2.80;1.00;;;8.40;49.30;;;;;;5051198;28;20034;-78
2021/01/24 11:43:33;;;;;;;7.85;1.73;;;8.40;50.10;;;;;;5055763;28;20452;-76
2021/01/24 11:45:59;;;;;;;1.77;1.08;;;8.50;49.90;;;;;;5055617;28;20025;-77
2021/01/24 11:48:24;;;;;;;2.33;0.82;;;8.50;49.20;;;;;;5055743;28;20025;-76
2021/01/24 11:50:51;;;;;;;1.95;0.93;;;8.40;48.50;;;;;;5055708;28;20074;-75
2021/01/24 11:53:18;;;;;;;2.47;1.10;;;8.40;48.00;;;;;;5055960;28;20120;-77
2021/01/24 11:55:45;;;;;;;1.42;0.93;;;8.40;48.10;;;;;;5051027;28;20470;-75
2021/01/24 11:58:10;;;;;;;1.48;0.82;;;8.50;48.80;;;;;;5041602;28;20050;-76
2021/01/24 12:00:36;;;;;;;2.15;0.95;;;8.60;48.30;;;;;;5055602;28;20032;-76
2021/01/24 12:03:02;;;;;;;1.50;0.90;;;8.60;47.70;;;;;;5055502;28;20027;-76
2021/01/24 12:05:28;;;;;;;1.55;0.80;;;8.70;48.20;;;;;;5055441;28;20032;-77
2021/01/24 12:07:54;;;;;;;2.97;0.90;;;8.70;47.80;;;;;;5055333;28;20088;-75
2021/01/24 12:10:19;;;;;;;1.30;0.90;;;8.80;46.70;;;;;;5055420;28;20036;-76
2021/01/24 12:12:45;;;;;;;21.63;1.38;;;8.80;46.80;;;;;;5050602;28;20028;-74
2021/01/24 12:15:11;;;;;;;0.90;0.60;;;8.90;47.50;;;;;;5041215;28;20064;-74
2021/01/24 12:17:37;;;;;;;3.13;1.00;;;8.90;46.00;;;;;;5055425;28;20029;-74
2021/01/24 12:20:03;;;;;;;0.55;0.50;;;9.00;46.00;;;;;;5055305;28;20025;-76
2021/01/24 12:22:29;;;;;;;0.95;0.70;;;9.00;45.80;;;;;;5055179;28;20017;-75
2021/01/24 12:24:55;;;;;;;3.33;0.60;;;9.10;46.00;;;;;;5037265;28;20128;-77
2021/01/24 12:27:21;;;;;;;9.50;0.85;;;9.10;45.80;;;;;;5054948;28;20029;-77
2021/01/24 12:29:46;;;;;;;3.88;0.90;;;9.20;44.70;;;;;;5054741;28;20119;-75
2021/01/24 12:32:12;;;;;;;4.60;0.75;;;9.10;43.80;;;;;;5055052;28;20057;-74
2021/01/24 12:34:38;;;;;;;1.02;0.82;;;9.10;43.90;;;;;;5054981;28;20052;-76
2021/01/24 12:37:04;;;;;;;2.45;1.08;;;9.00;43.60;;;;;;5054795;28;20499;-75
2021/01/24 12:39:29;;;;;;;2.20;1.10;;;9.00;43.40;;;;;;5054879;28;20110;-76
2021/01/24 12:41:55;;;;;;;5.88;1.15;;;9.00;44.20;;;;;;5053510;28;20021;-76
2021/01/24 12:44:21;;;;;;;1.02;0.85;;;8.90;43.80;;;;;;5054670;28;20071;-76
2021/01/24 12:46:46;;;;;;;1.83;0.82;;;8.90;43.60;;;;;;5053951;28;20119;-74